Time;durP1;ratioP1;P1;durP2;ratioP2;P2;SDS_P1;SDS_P2;PMS_P1;PMS_P2;Temp;Humidity;BMP_temperature;BMP_pressure;BME280_temperature;BME280_humidity;BME280_pressure;Samples;Min_cycle;Max_cycle;Signal;HPM_P1;HPM_P2
2022/09/07 00:01:21;;;;;;;8.73;5.53;;;;;;;17.17;61.29;95937.03;5043858;28;20137;-87
2022/09/07 00:03:47;;;;;;;8.30;6.07;;;;;;;16.95;62.05;95938.22;5045943;28;20024;-88
2022/09/07 00:06:12;;;;;;;8.98;5.38;;;;;;;17.00;62.12;95944.69;5027270;28;20029;-87
2022/09/07 00:08:39;;;;;;;9.80;5.65;;;;;;;17.11;61.91;95935.16;5044004;28;20025;-87
2022/09/07 00:11:06;;;;;;;7.82;5.10;;;;;;;17.16;61.80;95935.38;5044156;28;20029;-89
2022/09/07 00:13:33;;;;;;;8.90;5.15;;;;;;;17.26;61.73;95940.41;5043390;28;20049;-82
2022/09/07 00:16:03;;;;;;;7.55;5.28;;;;;;;17.27;60.78;95935.78;5045407;28;20510;-81
2022/09/07 00:18:28;;;;;;;6.25;5.05;;;;;;;17.15;60.45;95938.28;5043268;28;20407;-81
2022/09/07 00:21:02;;;;;;;6.72;4.63;;;;;;;17.10;60.31;95941.63;5027497;28;20025;-81
2022/09/07 00:23:28;;;;;;;6.15;4.25;;;;;;;17.09;60.45;95939.13;5027558;28;20112;-81
2022/09/07 00:26:00;;;;;;;6.40;4.53;;;;;;;17.09;60.02;95944.53;5044775;28;20029;-81
2022/09/07 00:28:26;;;;;;;7.00;5.00;;;;;;;17.02;60.08;95941.78;5043948;28;20025;-80
2022/09/07 00:30:51;;;;;;;7.53;4.20;;;;;;;17.03;60.15;95935.31;5043279;28;20415;-80
2022/09/07 00:33:17;;;;;;;6.88;5.20;;;;;;;17.03;60.06;95948.84;5045341;28;20037;-80
2022/09/07 00:35:42;;;;;;;7.13;3.60;;;;;;;17.03;59.04;95940.72;5042707;28;20036;-80
2022/09/07 00:38:08;;;;;;;5.93;3.85;;;;;;;16.97;59.05;95946.97;5045378;28;20033;-81
2022/09/07 00:40:34;;;;;;;4.93;3.90;;;;;;;16.87;58.75;95948.22;5010015;28;20483;-81
2022/09/07 00:42:59;;;;;;;5.53;3.83;;;;;;;16.77;59.59;95947.75;5027167;28;20507;-81
2022/09/07 00:45:25;;;;;;;5.10;4.10;;;;;;;16.73;59.89;95941.94;5026817;28;20025;-80
2022/09/07 00:48:05;;;;;;;8.45;4.32;;;;;;;16.76;59.87;95944.22;5026757;28;20021;-81
2022/09/07 00:50:36;;;;;;;7.35;4.40;;;;;;;16.78;60.38;95944.03;5011089;28;20059;-80
2022/09/07 00:53:31;;;;;;;5.65;4.30;;;;;;;16.73;60.18;95930.25;5044390;28;20489;-81
2022/09/07 00:55:57;;;;;;;6.38;4.25;;;;;;;16.68;60.46;95933.56;5030262;28;20060;-81
2022/09/07 00:58:22;;;;;;;5.32;4.13;;;;;;;16.69;60.21;95929.81;5043248;28;20155;-80
2022/09/07 01:00:48;;;;;;;6.28;3.90;;;;;;;16.67;60.22;95931.88;5026861;28;20029;-80
2022/09/07 01:03:19;;;;;;;6.25;4.35;;;;;;;16.65;60.00;95923.16;5026782;28;20381;-80
2022/09/07 01:05:56;;;;;;;7.13;4.53;;;;;;;16.61;60.68;95922.72;5010064;28;20032;-80
2022/09/07 01:08:21;;;;;;;6.55;4.15;;;;;;;16.58;60.78;95923.13;5029670;28;20356;-80
2022/09/07 01:10:47;;;;;;;6.93;4.28;;;;;;;16.59;61.15;95923.97;5030476;28;20476;-81
2022/09/07 01:13:13;;;;;;;5.47;4.47;;;;;;;16.51;60.90;95919.53;5047611;28;20136;-81
2022/09/07 01:15:55;;;;;;;7.20;4.30;;;;;;;16.57;60.50;95926.88;5047259;28;20028;-80
2022/09/07 01:19:00;;;;;;;6.07;4.90;;;;;;;16.57;60.55;95921.47;5031365;28;20060;-80
2022/09/07 01:21:32;;;;;;;6.88;4.28;;;;;;;16.52;61.12;95929.34;5048169;28;20029;-81
2022/09/07 01:24:34;;;;;;;6.18;4.20;;;;;;;16.50;60.58;95926.84;5046628;28;20036;-81
2022/09/07 01:27:34;;;;;;;6.15;4.32;;;;;;;16.45;60.70;95926.59;5046679;28;20037;-81
2022/09/07 01:30:05;;;;;;;7.07;4.43;;;;;;;16.49;60.22;95921.63;5048707;28;20033;-80
2022/09/07 01:32:39;;;;;;;7.70;5.03;;;;;;;16.46;59.83;95916.63;5030042;28;20442;-81
2022/09/07 01:35:08;;;;;;;5.57;3.95;;;;;;;16.37;59.98;95927.63;5031440;28;20033;-82
2022/09/07 01:37:45;;;;;;;7.70;4.40;;;;;;;16.29;60.33;95919.66;5013887;28;20487;-81
2022/09/07 01:40:45;;;;;;;8.05;4.65;;;;;;;16.25;60.64;95921.13;5030265;28;20503;-81
2022/09/07 01:43:49;;;;;;;7.55;4.60;;;;;;;16.15;61.29;95929.59;5047187;28;20439;-82
2022/09/07 01:46:25;;;;;;;6.47;4.75;;;;;;;16.14;60.97;95939.59;5045855;28;20048;-82
2022/09/07 01:48:51;;;;;;;8.13;4.93;;;;;;;16.11;61.08;95931.88;5047914;28;20024;-82
2022/09/07 01:51:17;;;;;;;8.82;4.72;;;;;;;16.08;61.08;95934.97;5030412;28;20025;-82
2022/09/07 01:53:49;;;;;;;6.30;4.93;;;;;;;16.11;61.12;95941.84;5029550;28;20029;-82
2022/09/07 01:56:23;;;;;;;5.25;4.47;;;;;;;16.11;61.13;95931.03;5031069;28;20498;-82
2022/09/07 01:59:01;;;;;;;7.55;4.82;;;;;;;16.10;61.00;95926.66;5030758;28;20686;-82
2022/09/07 02:01:43;;;;;;;6.13;5.10;;;;;;;16.11;60.71;95931.88;5030148;28;20108;-82
2022/09/07 02:04:09;;;;;;;5.90;4.60;;;;;;;16.05;61.26;95922.69;5030409;28;20467;-82
2022/09/07 02:06:40;;;;;;;9.95;4.72;;;;;;;15.96;60.69;95918.41;5045900;28;20057;-81
2022/09/07 02:09:09;;;;;;;8.32;5.07;;;;;;;15.92;61.16;95920.72;5030378;28;20039;-82
2022/09/07 02:11:41;;;;;;;6.85;5.00;;;;;;;15.90;61.53;95916.50;5029616;28;20036;-80
2022/09/07 02:14:21;;;;;;;6.97;4.97;;;;;;;15.86;61.37;95916.09;5046548;28;20044;-80
2022/09/07 02:17:02;;;;;;;6.43;4.80;;;;;;;15.86;61.61;95920.66;5030277;28;20028;-80
2022/09/07 02:19:31;;;;;;;8.77;4.80;;;;;;;15.83;61.78;95924.59;5028874;28;20106;-80
2022/09/07 02:21:59;;;;;;;6.78;5.15;;;;;;;15.86;61.95;95918.81;5030358;28;20438;-81
2022/09/07 02:24:37;;;;;;;9.15;5.13;;;;;;;15.80;61.31;95916.88;5028693;28;20025;-80
2022/09/07 02:27:11;;;;;;;7.90;5.55;;;;;;;15.79;61.40;95924.16;5029948;28;20035;-81
2022/09/07 02:29:37;;;;;;;9.43;5.30;;;;;;;15.70;62.14;95918.06;5029430;28;20021;-82
2022/09/07 02:32:03;;;;;;;9.98;5.30;;;;;;;15.72;62.26;95915.16;5012520;28;20116;-82
2022/09/07 02:34:28;;;;;;;8.88;5.35;;;;;;;15.75;62.37;95925.56;5045801;28;20025;-81
2022/09/07 02:36:53;;;;;;;7.15;5.25;;;;;;;15.75;62.13;95919.34;5046524;28;20075;-81
2022/09/07 02:39:19;;;;;;;7.28;5.05;;;;;;;15.77;62.12;95914.56;5029653;28;20037;-80
2022/09/07 02:41:45;;;;;;;6.13;4.93;;;;;;;15.68;62.57;95909.34;5045289;28;20025;-81
2022/09/07 02:44:21;;;;;;;8.13;5.70;;;;;;;15.74;62.38;95918.50;5046274;28;20514;-80
2022/09/07 02:46:51;;;;;;;7.07;5.55;;;;;;;15.75;62.44;95919.34;5045427;28;20036;-87
2022/09/07 02:49:38;;;;;;;6.88;5.18;;;;;;;15.77;61.96;95917.25;5045327;28;20024;-86
2022/09/07 02:52:09;;;;;;;9.45;6.05;;;;;;;15.77;61.71;95917.25;5046084;28;20024;-88
2022/09/07 02:55:10;;;;;;;6.80;5.35;;;;;;;15.77;61.89;95928.09;5044752;28;20422;-88
2022/09/07 02:57:54;;;;;;;7.10;4.97;;;;;;;15.74;61.57;95917.66;5045517;28;20041;-87
2022/09/07 03:00:24;;;;;;;7.75;5.05;;;;;;;15.67;61.80;95923.06;5047103;28;20095;-87
2022/09/07 03:03:22;;;;;;;6.75;5.35;;;;;;;15.64;62.04;95923.41;5029149;28;20029;-90
2022/09/07 03:06:01;;;;;;;8.13;4.70;;;;;;;15.67;61.91;95923.88;5046957;28;20467;-90
2022/09/07 03:08:40;;;;;;;9.90;5.13;;;;;;;15.67;61.49;95923.88;5029794;28;20028;-88
2022/09/07 03:11:05;;;;;;;8.65;4.60;;;;;;;15.63;61.36;95922.59;5028539;28;20068;-89
2022/09/07 03:13:31;;;;;;;8.45;5.07;;;;;;;15.62;61.62;95926.31;5028815;28;20507;-89
2022/09/07 03:15:57;;;;;;;7.43;5.45;;;;;;;15.59;61.62;95924.00;5028248;28;20017;-87
2022/09/07 03:18:23;;;;;;;8.45;4.75;;;;;;;15.57;61.73;95921.50;5021759;28;20029;-82
2022/09/07 03:20:49;;;;;;;9.05;5.10;;;;;;;15.51;61.83;95924.19;5008217;28;20034;-83
2022/09/07 03:23:14;;;;;;;7.72;5.05;;;;;;;15.43;62.09;95928.69;5027384;28;20032;-82
2022/09/07 03:25:40;;;;;;;8.00;5.40;;;;;;;15.35;62.21;95928.00;5026263;28;20036;-82
2022/09/07 03:28:05;;;;;;;9.13;5.85;;;;;;;15.34;62.49;95929.84;5025195;28;20103;-82
2022/09/07 03:30:31;;;;;;;8.70;5.45;;;;;;;15.30;62.75;95928.56;5024591;28;20463;-83
2022/09/07 03:32:56;;;;;;;8.50;5.43;;;;;;;15.34;62.35;95932.56;5025624;28;20118;-83
2022/09/07 03:35:21;;;;;;;8.48;5.43;;;;;;;15.34;62.20;95929.84;5026736;28;20029;-83
2022/09/07 03:37:47;;;;;;;11.75;5.00;;;;;;;15.40;61.93;95929.06;5007896;28;20049;-83
2022/09/07 03:40:13;;;;;;;7.45;5.28;;;;;;;15.42;61.78;95928.88;5025623;28;20029;-83
2022/09/07 03:42:39;;;;;;;7.85;5.10;;;;;;;15.43;61.67;95934.09;5007780;28;20522;-83
2022/09/07 03:45:05;;;;;;;7.88;5.55;;;;;;;15.43;61.98;95938.66;5025490;28;20021;-82
2022/09/07 03:47:33;;;;;;;10.00;5.38;;;;;;;15.38;62.12;95941.94;5025891;28;20101;-83
2022/09/07 03:49:58;;;;;;;14.10;7.35;;;;;;;15.32;61.46;95942.72;5025228;28;20021;-83
2022/09/07 03:52:24;;;;;;;8.25;5.30;;;;;;;15.25;60.93;95950.75;5024691;28;20029;-83
2022/09/07 03:54:49;;;;;;;7.78;4.85;;;;;;;15.23;61.52;95939.34;5025327;28;20143;-83
2022/09/07 03:57:15;;;;;;;7.90;5.65;;;;;;;15.22;61.79;95943.03;5026329;28;20432;-83
2022/09/07 03:59:40;;;;;;;6.00;4.95;;;;;;;15.25;61.89;95944.53;5007174;28;20051;-83
2022/09/07 04:02:05;;;;;;;8.35;5.82;;;;;;;15.28;61.46;95946.84;5025084;28;20022;-83
2022/09/07 04:04:31;;;;;;;9.75;5.60;;;;;;;15.26;61.28;95944.34;5025223;28;20037;-83
2022/09/07 04:06:56;;;;;;;7.78;5.32;;;;;;;15.29;61.22;95948.50;5024501;28;20033;-84
2022/09/07 04:09:22;;;;;;;10.20;6.07;;;;;;;15.29;60.94;95948.50;5027438;28;20036;-83
2022/09/07 04:11:47;;;;;;;8.93;5.55;;;;;;;15.30;60.91;95950.19;5025211;28;20033;-83
2022/09/07 04:14:13;;;;;;;9.63;5.20;;;;;;;15.28;60.97;95946.84;5025677;28;20528;-83
2022/09/07 04:16:38;;;;;;;11.13;5.50;;;;;;;15.26;61.04;95951.59;5023781;28;20091;-82
2022/09/07 04:19:04;;;;;;;17.00;5.80;;;;;;;15.27;60.74;95953.25;5024636;28;20022;-84
2022/09/07 04:21:30;;;;;;;7.72;5.40;;;;;;;15.28;60.61;95952.25;5023719;28;20381;-84
2022/09/07 04:23:55;;;;;;;9.07;5.30;;;;;;;15.23;60.68;95955.53;5008229;28;20082;-85
2022/09/07 04:26:29;;;;;;;8.40;5.43;;;;;;;15.29;60.89;95948.50;5024311;28;20759;-83
2022/09/07 04:28:54;;;;;;;10.27;5.40;;;;;;;15.31;60.87;95949.97;5023805;28;20025;-82
2022/09/07 04:31:20;;;;;;;8.68;5.18;;;;;;;15.35;60.85;95955.03;5007676;28;20029;-84
2022/09/07 04:33:46;;;;;;;7.63;5.30;;;;;;;15.35;60.78;95952.31;5040007;28;20100;-83
2022/09/07 04:36:11;;;;;;;7.13;5.40;;;;;;;15.43;60.65;95950.31;5044084;28;20044;-83
2022/09/07 04:38:40;;;;;;;6.88;5.00;;;;;;;15.48;60.56;95952.41;5024245;28;20018;-83
2022/09/07 04:41:12;;;;;;;9.48;5.30;;;;;;;15.59;59.85;95963.75;5003298;28;20022;-83
2022/09/07 04:43:38;;;;;;;7.50;5.43;;;;;;;15.63;59.65;95976.69;5023704;28;20029;-83
2022/09/07 04:46:04;;;;;;;6.75;5.60;;;;;;;15.66;59.67;95961.91;5036754;28;20441;-83
2022/09/07 04:48:29;;;;;;;8.15;5.65;;;;;;;15.76;59.44;95965.13;5027361;28;20480;-85
2022/09/07 04:50:55;;;;;;;6.00;5.10;;;;;;;15.82;59.10;95966.19;5026551;28;20037;-82
2022/09/07 04:53:20;;;;;;;7.15;5.20;;;;;;;15.88;58.99;95964.59;5027236;28;20577;-85
2022/09/07 04:55:46;;;;;;;8.63;5.45;;;;;;;15.98;58.87;95961.53;5042062;28;20032;-83
2022/09/07 04:58:11;;;;;;;8.00;5.55;;;;;;;16.10;58.34;95964.53;5027898;28;20036;-84
2022/09/07 05:00:40;;;;;;;9.18;5.38;;;;;;;16.17;58.65;95966.25;5042847;28;20381;-82
2022/09/07 05:03:05;;;;;;;7.22;5.25;;;;;;;16.25;58.19;95962.53;5043798;28;20029;-78
2022/09/07 05:05:30;;;;;;;12.50;5.85;;;;;;;16.30;58.15;95970.91;5025744;28;20028;-79
2022/09/07 05:07:56;;;;;;;39.03;13.30;;;;;;;16.39;58.14;95974.28;5044370;28;20032;-79
2022/09/07 05:10:21;;;;;;;20.27;9.73;;;;;;;16.51;57.75;95982.66;5014641;28;20467;-79
2022/09/07 05:12:47;;;;;;;15.25;6.63;;;;;;;16.58;57.62;95965.59;5004820;28;20045;-79
2022/09/07 05:15:12;;;;;;;10.45;5.28;;;;;;;16.63;57.26;95965.84;5023801;28;20034;-79
2022/09/07 05:17:38;;;;;;;8.07;5.43;;;;;;;16.75;56.77;95966.09;5023325;28;20030;-80
2022/09/07 05:20:04;;;;;;;11.85;5.80;;;;;;;16.83;57.48;95974.03;5023365;28;20018;-80
2022/09/07 05:22:29;;;;;;;9.63;5.32;;;;;;;16.95;57.41;95976.97;5023653;28;20488;-80
2022/09/07 05:24:55;;;;;;;12.15;5.72;;;;;;;17.03;57.28;95973.25;5023753;28;20030;-80
2022/09/07 05:27:20;;;;;;;8.82;5.40;;;;;;;17.14;57.05;95972.69;5023978;28;20211;-79
2022/09/07 05:29:46;;;;;;;12.75;5.97;;;;;;;17.23;56.24;95961.66;5023003;28;20030;-79
2022/09/07 05:32:12;;;;;;;9.32;5.25;;;;;;;17.29;56.77;95961.66;5023284;28;20018;-79
2022/09/07 05:34:37;;;;;;;13.60;5.45;;;;;;;17.38;55.50;95969.56;5022378;28;20029;-79
2022/09/07 05:37:02;;;;;;;11.30;5.50;;;;;;;17.40;54.67;95967.50;5023599;28;20125;-79
2022/09/07 05:39:28;;;;;;;12.40;6.70;;;;;;;17.39;55.26;95960.41;5023662;28;20026;-79
2022/09/07 05:41:53;;;;;;;9.93;5.35;;;;;;;17.42;55.24;95960.84;5024829;28;20421;-79
2022/09/07 05:44:19;;;;;;;11.65;5.25;;;;;;;17.58;54.33;95963.34;5022428;28;20026;-80
2022/09/07 05:46:44;;;;;;;15.85;5.82;;;;;;;17.69;54.67;95953.72;5023357;28;20034;-80
2022/09/07 05:49:10;;;;;;;13.35;5.25;;;;;;;17.75;55.25;95958.34;5022989;28;20029;-79
2022/09/07 05:51:36;;;;;;;8.75;5.30;;;;;;;17.87;55.54;95956.66;5022430;28;20041;-80
2022/09/07 05:54:01;;;;;;;8.32;5.57;;;;;;;17.99;54.73;95958.72;5025058;28;20044;-79
2022/09/07 05:56:27;;;;;;;10.40;5.40;;;;;;;18.12;55.14;95956.00;5025586;28;20459;-79
2022/09/07 05:58:52;;;;;;;11.13;5.07;;;;;;;18.20;54.26;95959.56;5010604;28;20041;-80
2022/09/07 06:01:18;;;;;;;10.18;4.55;;;;;;;18.33;52.35;95955.97;5027098;28;20349;-80
2022/09/07 06:03:43;;;;;;;10.05;4.93;;;;;;;18.51;52.68;95968.84;5010402;28;20032;-80
2022/09/07 06:06:10;;;;;;;12.60;5.35;;;;;;;18.62;53.27;95957.31;5009568;28;20022;-80
2022/09/07 06:08:37;;;;;;;14.07;5.20;;;;;;;18.77;52.89;95961.63;5009761;28;20029;-80
2022/09/07 06:11:09;;;;;;;16.13;5.22;;;;;;;18.90;53.42;95953.44;5010218;28;20033;-80
2022/09/07 06:13:35;;;;;;;6.95;3.40;;;;;;;19.02;49.11;95960.91;5025007;28;20516;-80
2022/09/07 06:16:01;;;;;;;8.00;2.95;;;;;;;18.98;49.13;95965.94;5027015;28;20028;-80
2022/09/07 06:18:34;;;;;;;6.88;3.22;;;;;;;18.89;50.61;95962.63;5026623;28;20122;-80
2022/09/07 06:21:12;;;;;;;4.05;2.58;;;;;;;19.08;47.67;95957.31;5010339;28;20522;-80
2022/09/07 06:23:38;;;;;;;5.70;2.88;;;;;;;19.14;46.82;95961.06;5025772;28;20068;-80
2022/09/07 06:26:04;;;;;;;4.35;3.00;;;;;;;19.12;47.30;95964.00;5025662;28;20119;-80
2022/09/07 06:28:35;;;;;;;4.82;2.60;;;;;;;19.06;47.46;95967.56;5009770;28;20496;-80
2022/09/07 06:31:03;;;;;;;6.45;3.00;;;;;;;19.02;47.40;95960.91;4992551;28;20029;-79
2022/09/07 06:33:29;;;;;;;4.78;2.50;;;;;;;19.04;47.23;95972.38;5026208;28;20026;-78
2022/09/07 06:36:00;;;;;;;6.78;2.80;;;;;;;19.07;47.46;95971.13;5026581;28;20037;-79
2022/09/07 06:38:32;;;;;;;7.55;2.25;;;;;;;19.09;48.19;95978.03;5009716;28;20022;-79
2022/09/07 06:41:05;;;;;;;3.88;2.75;;;;;;;19.20;48.52;95972.97;5027131;28;20103;-80
2022/09/07 06:43:30;;;;;;;;;;;;;;;19.21;48.10;95975.47;5026996;28;20318;-80
2022/09/07 06:45:56;;;;;;;6.10;2.45;;;;;;;19.21;47.88;95977.34;5025943;28;20348;-79
2022/09/07 06:48:21;;;;;;;5.63;2.35;;;;;;;19.24;47.69;95976.91;5024972;28;20496;-80
2022/09/07 06:51:06;;;;;;;3.05;2.30;;;;;;;19.31;47.95;95974.97;5025919;28;20030;-79
2022/09/07 06:53:36;;;;;;;5.78;2.20;;;;;;;19.43;46.41;95977.81;5026505;28;20425;-80
2022/09/07 06:56:04;;;;;;;3.83;2.20;;;;;;;19.59;47.21;95981.88;5009258;28;20017;-80
2022/09/07 06:58:30;;;;;;;7.40;2.70;;;;;;;19.76;47.31;95986.78;5008883;28;20049;-80
2022/09/07 07:00:55;;;;;;;6.30;2.53;;;;;;;19.89;44.84;95980.41;5024690;28;20022;-80
2022/09/07 07:03:21;;;;;;;6.40;2.53;;;;;;;19.88;45.67;95976.00;5009445;28;20030;-79
2022/09/07 07:05:53;;;;;;;5.93;2.47;;;;;;;19.97;45.33;95977.41;5006974;28;20029;-79
2022/09/07 07:08:19;;;;;;;;;;;;;;;20.06;46.00;95982.56;5010156;28;20028;-80
2022/09/07 07:10:45;;;;;;;4.85;2.15;;;;;;;20.08;45.68;95984.03;5024405;28;19921;-80
2022/09/07 07:13:10;;;;;;;5.22;2.20;;;;;;;20.21;44.99;95980.34;5008539;28;20081;-80
2022/09/07 07:15:35;;;;;;;4.10;2.13;;;;;;;20.30;44.88;95980.84;5025984;28;20424;-80
2022/09/07 07:18:01;;;;;;;3.13;2.20;;;;;;;20.43;44.62;95973.59;5026016;28;20036;-80
2022/09/07 07:20:27;;;;;;;4.45;2.35;;;;;;;20.45;44.32;95966.03;5026807;28;20033;-81
2022/09/07 07:22:52;;;;;;;6.53;2.70;;;;;;;20.51;43.87;95976.03;5025356;28;20040;-80
2022/09/07 07:25:18;;;;;;;9.52;2.72;;;;;;;20.45;44.38;95979.66;5025528;28;20038;-81
2022/09/07 07:27:46;;;;;;;5.28;2.10;;;;;;;20.51;43.80;95970.56;5025389;28;20033;-79
2022/09/07 07:30:12;;;;;;;3.75;2.10;;;;;;;20.54;44.60;95978.28;5009238;28;20048;-80
2022/09/07 07:32:38;;;;;;;7.50;2.78;;;;;;;20.66;43.75;95978.38;5025581;28;20029;-80
2022/09/07 07:35:05;;;;;;;7.00;1.92;;;;;;;20.92;41.96;95979.16;5026106;28;20042;-79
2022/09/07 07:37:31;;;;;;;6.28;2.10;;;;;;;20.93;41.79;95983.53;4992386;28;20465;-80
2022/09/07 07:39:56;;;;;;;5.88;2.00;;;;;;;21.01;42.34;95978.81;5024126;28;20480;-79
2022/09/07 07:42:22;;;;;;;5.18;2.00;;;;;;;21.06;42.92;95970.75;5025035;28;20492;-79
2022/09/07 07:44:47;;;;;;;5.00;2.60;;;;;;;21.09;42.74;95968.41;5024829;28;20021;-80
2022/09/07 07:47:13;;;;;;;9.27;2.30;;;;;;;21.15;42.12;95974.81;5026381;28;20033;-80
2022/09/07 07:49:38;;;;;;;4.13;2.35;;;;;;;21.07;42.11;95967.00;5025370;28;20037;-80
2022/09/07 07:52:05;;;;;;;5.50;2.25;;;;;;;21.17;42.54;95977.31;5026010;28;20033;-80
2022/09/07 07:54:35;;;;;;;5.30;2.00;;;;;;;21.30;42.44;95970.84;5025385;28;20496;-80
2022/09/07 07:57:01;;;;;;;5.85;2.30;;;;;;;21.43;41.68;95975.28;4991680;28;20476;-80
2022/09/07 07:59:26;;;;;;;5.40;2.40;;;;;;;21.39;41.70;95974.94;5024586;28;20472;-80
2022/09/07 08:01:52;;;;;;;4.22;2.20;;;;;;;21.47;41.74;95982.75;5006816;28;20072;-80
2022/09/07 08:04:17;;;;;;;5.43;2.00;;;;;;;21.35;41.67;95985.47;5026230;28;20119;-80
2022/09/07 08:06:43;;;;;;;5.68;2.65;;;;;;;21.30;41.36;95974.41;5025027;28;20021;-80
2022/09/07 08:09:09;;;;;;;4.00;2.47;;;;;;;21.25;41.72;95974.28;5025728;28;20506;-80
2022/09/07 08:11:35;;;;;;;3.80;2.08;;;;;;;21.05;41.78;95974.56;5025367;28;20036;-80
2022/09/07 08:14:01;;;;;;;4.40;1.90;;;;;;;21.12;42.27;95969.84;5023365;28;20041;-80
2022/09/07 08:16:27;;;;;;;8.98;2.40;;;;;;;21.35;41.93;95984.63;5024040;28;20025;-81
2022/09/07 08:18:52;;;;;;;5.05;2.35;;;;;;;21.50;42.27;95973.28;5024373;28;20021;-80
2022/09/07 08:21:18;;;;;;;7.65;2.63;;;;;;;21.63;41.86;95971.41;5024261;28;20033;-80
2022/09/07 08:23:43;;;;;;;3.30;2.22;;;;;;;21.56;42.52;95968.78;5024469;28;20029;-79
2022/09/07 08:26:09;;;;;;;3.17;2.33;;;;;;;21.54;41.61;95960.84;5008552;28;20029;-79
2022/09/07 08:28:37;;;;;;;4.38;2.55;;;;;;;21.68;42.01;95958.72;5007583;28;20112;-80
2022/09/07 08:31:06;;;;;;;4.47;2.90;;;;;;;21.78;41.75;95957.34;5007425;28;20056;-80
2022/09/07 08:33:33;;;;;;;5.00;2.50;;;;;;;21.83;41.21;95955.56;5007267;28;20033;-80
2022/09/07 08:36:00;;;;;;;4.25;2.38;;;;;;;21.69;41.17;95965.00;5024237;28;20029;-80
2022/09/07 08:38:27;;;;;;;5.43;2.50;;;;;;;21.75;41.88;95955.88;5023837;28;20112;-80
2022/09/07 08:40:52;;;;;;;6.05;2.45;;;;;;;21.95;41.71;95957.47;5006466;28;20022;-79
2022/09/07 08:43:38;;;;;;;4.30;2.42;;;;;;;21.93;42.88;95946.78;5023930;28;20493;-80
2022/09/07 08:46:26;;;;;;;6.68;2.58;;;;;;;21.91;41.41;95943.47;5023926;28;20041;-80
2022/09/07 08:48:52;;;;;;;6.85;2.25;;;;;;;21.91;41.90;95934.47;5008265;28;20143;-80
2022/09/07 08:51:17;;;;;;;6.90;2.80;;;;;;;21.83;42.92;95936.47;4990809;28;20029;-81
2022/09/07 08:53:44;;;;;;;6.63;3.00;;;;;;;22.02;43.05;95935.53;5023822;28;20037;-79
2022/09/07 08:56:32;;;;;;;18.42;3.33;;;;;;;21.90;42.15;95930.03;5007397;28;20036;-79
2022/09/07 08:58:58;;;;;;;11.93;3.70;;;;;;;21.77;43.71;95931.06;5006278;28;20168;-80
2022/09/07 09:01:31;;;;;;;7.85;3.33;;;;;;;22.04;43.24;95930.66;5006914;28;20025;-80
2022/09/07 09:03:57;;;;;;;6.45;3.10;;;;;;;22.30;41.41;95921.13;5023465;28;20041;-80
2022/09/07 09:06:41;;;;;;;4.57;3.00;;;;;;;22.41;41.38;95916.69;5005980;28;20476;-79
2022/09/07 09:09:12;;;;;;;5.53;3.10;;;;;;;22.48;42.03;95922.03;5025080;28;20021;-79
2022/09/07 09:11:56;;;;;;;10.25;3.20;;;;;;;22.51;41.13;95916.06;5024038;28;20030;-80
2022/09/07 09:14:25;;;;;;;5.50;2.97;;;;;;;22.63;40.85;95917.97;5024548;28;20053;-80
2022/09/07 09:17:03;;;;;;;12.43;3.13;;;;;;;22.42;40.60;95912.06;5023592;28;20033;-80
2022/09/07 09:19:35;;;;;;;6.53;3.05;;;;;;;22.58;41.02;95903.13;5006689;28;20128;-81
2022/09/07 09:22:09;;;;;;;7.10;3.30;;;;;;;22.68;40.65;95910.69;5023676;28;20397;-80
2022/09/07 09:24:36;;;;;;;4.85;3.35;;;;;;;22.63;42.09;95904.31;5023796;28;20034;-79
2022/09/07 09:27:02;;;;;;;5.45;3.50;;;;;;;22.83;42.14;95901.97;5007581;28;20029;-80
2022/09/07 09:29:27;;;;;;;5.82;3.15;;;;;;;22.95;42.08;95906.56;4991333;28;20389;-80
2022/09/07 09:31:53;;;;;;;5.63;3.38;;;;;;;23.00;40.69;95890.28;5028234;28;20033;-81
2022/09/07 09:34:19;;;;;;;6.50;3.55;;;;;;;23.07;41.00;95893.66;5028180;28;20037;-80
2022/09/07 09:36:52;;;;;;;5.50;3.13;;;;;;;23.10;40.04;95895.09;5026294;28;20142;-80
2022/09/07 09:39:25;;;;;;;8.23;3.55;;;;;;;23.08;41.32;95894.50;5010865;28;20029;-79
2022/09/07 09:41:50;;;;;;;;;;;;;;;23.17;40.50;95889.44;5028154;28;20024;-80
2022/09/07 09:44:16;;;;;;;8.27;3.80;;;;;;;23.08;40.17;95892.59;5028702;28;20007;-80
2022/09/07 09:46:41;;;;;;;5.45;3.85;;;;;;;23.04;39.93;95883.22;5010191;28;20477;-80
2022/09/07 09:49:21;;;;;;;13.82;4.68;;;;;;;23.02;40.20;95884.56;5010343;28;20057;-80
2022/09/07 09:51:51;;;;;;;4.57;3.35;;;;;;;23.04;41.94;95880.47;5010623;28;20083;-81
2022/09/07 09:54:32;;;;;;;4.97;2.97;;;;;;;23.08;41.22;95880.81;5026082;28;20025;-80
2022/09/07 09:56:58;;;;;;;6.35;3.47;;;;;;;23.01;41.41;95883.72;5011059;28;20029;-79
2022/09/07 09:59:27;;;;;;;7.82;3.25;;;;;;;23.22;41.60;95878.59;5027289;28;20065;-80
2022/09/07 10:01:52;;;;;;;6.03;3.28;;;;;;;23.31;41.73;95874.38;5027043;28;20026;-81
2022/09/07 10:04:18;;;;;;;7.45;3.40;;;;;;;23.36;40.54;95870.09;5026743;28;20028;-80
2022/09/07 10:06:53;;;;;;;7.20;3.67;;;;;;;22.88;41.03;95868.44;5027350;28;20461;-80
2022/09/07 10:09:20;;;;;;;4.72;3.35;;;;;;;23.17;39.91;95864.81;5010920;28;20025;-80
2022/09/07 10:11:47;;;;;;;5.35;3.25;;;;;;;23.14;40.48;95859.84;5009198;28;20049;-81
2022/09/07 10:14:18;;;;;;;6.68;3.50;;;;;;;23.19;41.56;95857.22;5010401;28;20119;-81
2022/09/07 10:16:43;;;;;;;5.00;3.53;;;;;;;23.25;40.47;95856.22;5009413;28;20037;-81
2022/09/07 10:19:44;;;;;;;6.03;3.22;;;;;;;23.34;40.37;95857.47;5010537;28;20455;-81
2022/09/07 10:22:45;;;;;;;5.25;3.28;;;;;;;23.33;39.40;95849.50;5025287;28;20491;-80
2022/09/07 10:25:38;;;;;;;4.93;3.30;;;;;;;23.25;39.16;95845.28;5000233;28;20492;-80
2022/09/07 10:28:13;;;;;;;6.82;3.40;;;;;;;23.29;40.89;95843.72;5026356;28;20037;-82
2022/09/07 10:31:02;;;;;;;5.82;3.47;;;;;;;23.33;40.47;95831.19;5026125;28;20033;-79
2022/09/07 10:33:27;;;;;;;5.65;3.30;;;;;;;23.30;39.52;95839.88;5025291;28;20420;-81
2022/09/07 10:36:02;;;;;;;6.18;3.65;;;;;;;23.47;40.57;95830.88;5027646;28;20034;-80
2022/09/07 10:38:28;;;;;;;4.53;3.40;;;;;;;23.50;39.65;95830.38;5009716;28;20122;-81
2022/09/07 10:41:03;;;;;;;5.72;3.42;;;;;;;23.50;39.45;95827.66;5025622;28;20100;-81
2022/09/07 10:43:49;;;;;;;4.90;3.28;;;;;;;23.57;41.49;95833.75;5025949;28;20032;-80
2022/09/07 10:46:45;;;;;;;6.88;3.30;;;;;;;23.52;39.72;95828.19;5024947;28;20033;-79
2022/09/07 10:49:29;;;;;;;6.20;3.50;;;;;;;23.66;39.67;95830.59;5027466;28;20104;-80
2022/09/07 10:52:21;;;;;;;7.63;3.38;;;;;;;23.82;40.72;95823.44;5009542;28;20038;-80
2022/09/07 10:54:53;;;;;;;;;;;;;;;23.82;39.47;95815.22;5025613;28;20056;-82
2022/09/07 10:57:56;;;;;;;9.77;3.00;;;;;;;23.85;38.71;95822.94;5025889;28;19913;-81
2022/09/07 11:00:21;;;;;;;;;;;;;;;23.85;37.96;95817.47;5026929;28;20416;-81
2022/09/07 11:03:02;;;;;;;5.18;3.35;;;;;;;23.75;37.68;95815.41;5024971;28;20284;-81
2022/09/07 11:05:36;;;;;;;2.60;2.40;;;;;;;23.89;36.74;95809.56;5025745;28;20239;-80
2022/09/07 11:08:16;;;;;;;4.10;2.80;;;;;;;23.92;38.09;95811.81;5024186;28;20032;-79
2022/09/07 11:11:00;;;;;;;3.60;2.70;;;;;;;24.05;39.35;95803.19;5025506;28;20033;-80
2022/09/07 11:13:27;;;;;;;5.05;3.20;;;;;;;24.13;38.13;95804.69;5026055;28;20544;-79
2022/09/07 11:15:58;;;;;;;6.65;3.42;;;;;;;24.24;37.70;95800.19;4991728;28;20059;-81
2022/09/07 11:18:29;;;;;;;4.78;2.97;;;;;;;24.26;38.17;95798.00;5009020;28;20108;-79
2022/09/07 11:20:59;;;;;;;4.72;3.05;;;;;;;24.29;38.32;95792.03;5007731;28;20056;-80
2022/09/07 11:23:41;;;;;;;8.13;3.30;;;;;;;24.46;38.72;95790.28;5009053;28;20057;-80
2022/09/07 11:26:18;;;;;;;4.82;2.72;;;;;;;24.48;38.17;95780.72;5025748;28;20113;-80
2022/09/07 11:28:53;;;;;;;4.45;3.33;;;;;;;24.53;38.67;95785.41;5024717;28;20040;-80
2022/09/07 11:31:24;;;;;;;3.92;3.10;;;;;;;24.57;39.08;95781.06;5009174;28;20021;-80
2022/09/07 11:34:13;;;;;;;3.80;3.08;;;;;;;24.56;37.59;95779.41;5023590;28;20087;-80
2022/09/07 11:36:45;;;;;;;4.95;3.00;;;;;;;24.77;36.63;95779.63;5025304;28;20038;-79
2022/09/07 11:39:17;;;;;;;3.75;2.95;;;;;;;24.81;36.80;95775.28;5023990;28;20040;-80
2022/09/07 11:41:55;;;;;;;3.80;2.90;;;;;;;24.98;36.47;95771.59;5024558;28;20041;-80
2022/09/07 11:44:23;;;;;;;5.25;3.35;;;;;;;24.94;36.73;95774.03;5008932;28;20026;-80
2022/09/07 11:46:59;;;;;;;3.70;3.30;;;;;;;24.84;35.99;95768.44;5007332;28;20112;-80
2022/09/07 11:49:29;;;;;;;4.78;3.10;;;;;;;24.92;36.98;95770.75;4992717;28;20068;-81